Time;durP1;ratioP1;P1;durP2;ratioP2;P2;SDS_P1;SDS_P2;PMS_P1;PMS_P2;Temp;Humidity;BMP_temperature;BMP_pressure;BME280_temperature;BME280_humidity;BME280_pressure;Samples;Min_cycle;Max_cycle;Signal;HPM_P1;HPM_P2
2021/07/08 00:02:13;;;;;;;4.50;4.20;;;23.70;97.30;;;;;;5124265;27;20445;-25
2021/07/08 00:04:46;;;;;;;4.73;3.70;;;23.90;97.10;;;;;;5139559;27;20445;-25
2021/07/08 00:07:17;;;;;;;3.80;3.60;;;23.90;96.00;;;;;;5143699;27;20453;-26
2021/07/08 00:09:48;;;;;;;3.77;3.57;;;23.80;96.70;;;;;;5144010;27;20452;-28
2021/07/08 00:12:22;;;;;;;3.40;3.20;;;23.90;96.50;;;;;;5143102;28;20599;-25
2021/07/08 00:14:53;;;;;;;4.50;4.10;;;24.00;96.90;;;;;;5144202;27;20449;-26
2021/07/08 00:17:24;;;;;;;3.97;3.70;;;23.80;96.40;;;;;;5143841;27;20476;-25
2021/07/08 00:19:56;;;;;;;4.43;4.13;;;23.80;96.50;;;;;;5144239;27;20575;-27
2021/07/08 00:22:33;;;;;;;4.60;4.30;;;23.80;96.70;;;;;;5143605;27;20445;-29
2021/07/08 00:25:05;;;;;;;3.90;3.60;;;23.80;96.80;;;;;;5144125;28;20472;-25
2021/07/08 00:27:36;;;;;;;4.63;4.20;;;23.70;96.50;;;;;;5143044;28;20491;-24
2021/07/08 00:30:08;;;;;;;3.83;3.57;;;23.70;96.50;;;;;;5143938;27;20456;-26
2021/07/08 00:32:42;;;;;;;4.00;3.70;;;23.60;96.70;;;;;;5143516;27;20448;-26
2021/07/08 00:35:20;;;;;;;5.47;4.07;;;23.60;97.80;;;;;;5144137;27;20424;-26
2021/07/08 00:37:51;;;;;;;4.30;4.00;;;23.60;97.80;;;;;;5144030;27;20554;-27
2021/07/08 00:40:22;;;;;;;3.90;3.70;;;23.60;97.90;;;;;;5143362;27;20452;-28
2021/07/08 00:42:53;;;;;;;4.20;3.90;;;23.70;96.90;;;;;;5143862;27;20444;-24
2021/07/08 00:45:26;;;;;;;7.63;3.93;;;23.50;97.30;;;;;;5143567;27;20468;-25
2021/07/08 00:48:02;;;;;;;4.10;3.80;;;23.40;97.60;;;;;;5143708;27;20443;-28
2021/07/08 00:50:42;;;;;;;4.30;4.00;;;23.50;97.20;;;;;;5131090;27;20442;-30
2021/07/08 00:53:19;;;;;;;3.90;3.60;;;23.40;97.10;;;;;;5139015;27;20507;-23
2021/07/08 00:55:58;;;;;;;4.10;3.80;;;23.40;97.00;;;;;;5159764;27;20444;-26
2021/07/08 00:58:31;;;;;;;4.23;3.93;;;23.40;97.30;;;;;;5143733;28;20448;-23
2021/07/08 01:01:08;;;;;;;4.10;3.80;;;23.40;97.90;;;;;;5136419;27;20484;-26
2021/07/08 01:03:42;;;;;;;4.00;3.70;;;23.50;97.50;;;;;;5126920;28;20457;-26
2021/07/08 01:06:20;;;;;;;4.00;3.80;;;23.50;97.40;;;;;;5126400;28;20444;-24
2021/07/08 01:08:51;;;;;;;3.90;3.60;;;23.20;97.80;;;;;;5126988;28;20433;-25
2021/07/08 01:11:23;;;;;;;3.80;3.60;;;23.20;98.20;;;;;;5125597;28;20429;-23
2021/07/08 01:13:54;;;;;;;4.00;3.70;;;23.10;98.20;;;;;;5127055;28;20997;-28
2021/07/08 01:16:28;;;;;;;4.40;4.10;;;23.10;98.20;;;;;;5126425;28;20509;-26
2021/07/08 01:19:04;;;;;;;4.50;4.20;;;23.10;98.10;;;;;;5126296;28;20827;-24
2021/07/08 01:21:38;;;;;;;3.90;3.60;;;23.10;98.30;;;;;;5126354;28;20488;-23
2021/07/08 01:24:11;;;;;;;4.10;3.80;;;23.20;97.80;;;;;;5126921;28;20852;-23
2021/07/08 01:26:42;;;;;;;4.13;3.83;;;23.10;98.20;;;;;;5126341;28;20514;-26
2021/07/08 01:29:19;;;;;;;4.23;3.93;;;23.10;98.30;;;;;;5126443;27;20490;-27
2021/07/08 01:31:55;;;;;;;4.37;4.07;;;23.00;98.20;;;;;;5126160;28;20423;-25
2021/07/08 01:34:27;;;;;;;4.00;3.80;;;23.10;98.10;;;;;;5126085;28;20536;-25
2021/07/08 01:37:05;;;;;;;4.33;4.07;;;23.00;97.60;;;;;;5125763;28;20870;-26
2021/07/08 01:39:38;;;;;;;3.93;3.73;;;22.90;98.50;;;;;;5136874;27;20924;-26
2021/07/08 01:42:12;;;;;;;4.50;4.20;;;22.90;98.80;;;;;;5146337;27;20478;-24
2021/07/08 01:44:46;;;;;;;3.93;3.63;;;22.90;98.70;;;;;;5146887;27;20472;-27
2021/07/08 01:47:22;;;;;;;4.30;4.00;;;22.90;98.50;;;;;;5146265;27;20430;-25
2021/07/08 01:49:54;;;;;;;4.30;4.00;;;22.80;98.60;;;;;;5146923;27;20448;-24
2021/07/08 01:52:27;;;;;;;4.20;3.90;;;22.80;98.50;;;;;;5146484;27;20444;-25
2021/07/08 01:55:08;;;;;;;4.20;3.80;;;22.60;98.80;;;;;;5146689;27;20486;-28
2021/07/08 01:57:42;;;;;;;5.10;3.80;;;22.60;99.20;;;;;;5146033;27;20520;-24
2021/07/08 02:00:15;;;;;;;4.07;3.53;;;22.70;99.20;;;;;;5146710;27;20447;-23
2021/07/08 02:02:46;;;;;;;4.40;4.00;;;22.70;99.20;;;;;;5146457;27;20456;-24
2021/07/08 02:05:17;;;;;;;4.50;3.77;;;22.70;99.40;;;;;;5146548;27;20455;-23
2021/07/08 02:07:53;;;;;;;4.00;3.70;;;22.70;99.30;;;;;;5146191;27;20445;-23
2021/07/08 02:10:26;;;;;;;4.20;3.87;;;22.60;99.60;;;;;;5146033;27;20510;-22
2021/07/08 02:12:57;;;;;;;4.10;3.80;;;22.50;99.80;;;;;;5145603;27;20501;-25
2021/07/08 02:15:30;;;;;;;3.80;3.57;;;22.50;99.10;;;;;;5145995;27;20499;-24
2021/07/08 02:18:02;;;;;;;4.57;4.27;;;22.60;99.80;;;;;;5146131;27;20449;-26
2021/07/08 02:20:32;;;;;;;4.03;3.80;;;22.60;99.40;;;;;;5145817;27;20452;-23
2021/07/08 02:23:26;;;;;;;4.23;3.83;;;22.50;99.50;;;;;;5146464;27;20577;-24
2021/07/08 02:25:57;;;;;;;4.00;3.70;;;22.50;99.80;;;;;;5145123;27;20524;-27
2021/07/08 02:28:31;;;;;;;3.70;3.40;;;22.40;99.80;;;;;;5139467;27;20448;-24
2021/07/08 02:31:05;;;;;;;4.20;3.90;;;22.30;99.90;;;;;;5125222;28;20441;-25
2021/07/08 02:33:39;;;;;;;3.80;3.60;;;22.30;99.70;;;;;;5125569;28;20525;-27
2021/07/08 02:36:15;;;;;;;3.80;3.60;;;22.30;99.70;;;;;;5124892;28;20477;-27
2021/07/08 02:38:47;;;;;;;4.30;4.00;;;22.20;99.90;;;;;;5128714;27;20415;-25
2021/07/08 02:41:20;;;;;;;3.77;3.50;;;22.20;99.90;;;;;;5144919;27;20466;-26
2021/07/08 02:43:52;;;;;;;3.97;3.67;;;22.10;99.90;;;;;;5145905;27;20999;-24
2021/07/08 02:46:27;;;;;;;4.50;4.30;;;22.00;99.90;;;;;;5145591;27;20424;-22
2021/07/08 02:48:58;;;;;;;3.70;3.50;;;22.00;99.90;;;;;;5145859;27;20422;-24
2021/07/08 02:51:32;;;;;;;5.20;3.70;;;22.00;99.90;;;;;;5144926;27;20451;-26
2021/07/08 02:54:10;;;;;;;3.50;3.30;;;22.10;99.90;;;;;;5145571;27;20500;-24
2021/07/08 02:56:43;;;;;;;3.90;3.70;;;22.10;99.90;;;;;;5145059;27;20794;-26
2021/07/08 02:59:17;;;;;;;4.27;3.97;;;22.10;99.90;;;;;;5145686;27;20443;-28
2021/07/08 03:01:48;;;;;;;4.10;3.90;;;22.00;99.90;;;;;;5145144;27;20578;-24
2021/07/08 03:04:19;;;;;;;3.90;3.60;;;22.00;99.90;;;;;;5145345;27;20448;-25
2021/07/08 03:06:50;;;;;;;4.97;4.57;;;21.90;99.90;;;;;;5145055;27;20457;-29
2021/07/08 03:09:22;;;;;;;4.53;4.13;;;21.90;99.90;;;;;;5145682;27;20419;-24
2021/07/08 03:11:53;;;;;;;4.10;3.80;;;21.90;99.90;;;;;;5143950;27;20535;-25
2021/07/08 03:14:28;;;;;;;3.90;3.70;;;21.80;99.90;;;;;;5145342;27;20530;-27
2021/07/08 03:16:59;;;;;;;4.03;3.60;;;21.70;99.90;;;;;;5145065;27;20448;-25
2021/07/08 03:19:31;;;;;;;4.70;4.30;;;21.60;99.90;;;;;;5124914;28;20409;-22
2021/07/08 03:22:01;;;;;;;3.97;3.53;;;21.50;99.90;;;;;;5124198;28;20465;-23
2021/07/08 03:24:42;;;;;;;4.10;3.80;;;21.50;99.90;;;;;;5123789;28;20429;-24
2021/07/08 03:27:15;;;;;;;4.07;3.80;;;21.40;99.90;;;;;;5123658;28;20487;-22
2021/07/08 03:29:57;;;;;;;3.90;3.60;;;21.50;99.90;;;;;;5124660;28;20416;-25
2021/07/08 03:32:28;;;;;;;3.90;3.60;;;21.50;99.90;;;;;;5124130;28;20552;-25
2021/07/08 03:34:59;;;;;;;3.83;3.53;;;21.40;99.90;;;;;;5124457;28;20471;-23
2021/07/08 03:37:32;;;;;;;3.70;3.50;;;21.30;99.90;;;;;;5124166;28;20438;-25
2021/07/08 03:40:07;;;;;;;3.87;3.57;;;21.20;99.90;;;;;;5124295;28;20489;-23
2021/07/08 03:42:40;;;;;;;3.77;3.57;;;21.10;99.90;;;;;;5123291;28;20502;-23
2021/07/08 03:45:13;;;;;;;3.87;3.57;;;21.10;99.90;;;;;;5124320;28;20505;-25
2021/07/08 03:47:44;;;;;;;3.60;3.40;;;21.10;99.90;;;;;;5123972;28;20484;-25
2021/07/08 03:50:16;;;;;;;3.60;3.30;;;21.00;99.90;;;;;;5124497;28;20503;-27
2021/07/08 03:52:52;;;;;;;4.60;3.87;;;20.90;99.90;;;;;;5123889;28;20426;-24
2021/07/08 03:55:30;;;;;;;3.87;3.57;;;20.80;99.90;;;;;;5124115;28;20948;-23
2021/07/08 03:58:01;;;;;;;2.70;2.50;;;20.80;99.90;;;;;;5124221;28;20416;-24
2021/07/08 04:00:34;;;;;;;1.97;1.87;;;20.70;99.90;;;;;;5124028;28;20770;-22
2021/07/08 04:03:10;;;;;;;4.10;2.30;;;20.70;99.90;;;;;;5123898;28;20462;-26
2021/07/08 04:05:42;;;;;;;2.40;2.10;;;20.60;99.90;;;;;;5123765;28;20444;-26
2021/07/08 04:08:13;;;;;;;2.30;2.10;;;20.50;99.90;;;;;;5140024;28;20467;-25
2021/07/08 04:10:46;;;;;;;2.83;2.63;;;20.40;99.90;;;;;;5144243;27;21009;-25
2021/07/08 04:13:19;;;;;;;3.13;2.50;;;20.30;99.90;;;;;;5144386;27;20529;-25
2021/07/08 04:15:54;;;;;;;2.40;2.20;;;20.20;99.90;;;;;;5144636;27;20485;-24
2021/07/08 04:18:25;;;;;;;2.60;2.40;;;20.20;99.90;;;;;;5144303;27;20479;-23
2021/07/08 04:20:56;;;;;;;2.27;2.07;;;20.10;99.90;;;;;;5144136;27;20419;-25
2021/07/08 04:23:30;;;;;;;2.57;2.37;;;20.00;99.90;;;;;;5144192;28;20441;-25
2021/07/08 04:26:06;;;;;;;2.43;2.20;;;19.90;99.90;;;;;;5143711;28;20450;-25
2021/07/08 04:28:37;;;;;;;2.10;2.00;;;19.80;99.90;;;;;;5144616;27;20415;-23
2021/07/08 04:31:09;;;;;;;2.43;2.23;;;19.60;99.90;;;;;;5144104;27;20504;-22
2021/07/08 04:33:40;;;;;;;4.03;2.70;;;19.50;99.90;;;;;;5144060;27;20440;-24
2021/07/08 04:36:12;;;;;;;3.40;2.53;;;19.40;99.90;;;;;;5147103;27;20510;-24
2021/07/08 04:38:51;;;;;;;3.43;3.13;;;19.30;99.90;;;;;;5148311;27;20407;-25
2021/07/08 04:41:26;;;;;;;2.83;2.63;;;19.30;99.90;;;;;;5147581;27;20431;-23
2021/07/08 04:43:58;;;;;;;2.47;2.27;;;19.20;99.90;;;;;;5147979;27;20469;-26
2021/07/08 04:46:34;;;;;;;2.40;2.30;;;19.10;99.90;;;;;;5147917;27;20531;-23
2021/07/08 04:49:05;;;;;;;2.90;2.70;;;18.90;99.90;;;;;;5148092;27;20764;-23
2021/07/08 04:51:39;;;;;;;3.10;2.80;;;18.90;99.90;;;;;;5146985;27;20487;-24
2021/07/08 04:54:12;;;;;;;2.87;2.67;;;18.90;99.90;;;;;;5147591;27;20469;-24
2021/07/08 04:56:45;;;;;;;2.80;2.60;;;18.80;99.90;;;;;;5143346;27;20884;-24
2021/07/08 04:59:21;;;;;;;3.00;2.80;;;18.70;99.90;;;;;;5133071;27;20448;-24
2021/07/08 05:01:52;;;;;;;2.73;2.53;;;18.70;99.90;;;;;;5147448;27;20505;-24
2021/07/08 05:04:23;;;;;;;3.77;3.47;;;18.70;99.90;;;;;;5147594;27;20456;-23
2021/07/08 05:06:54;;;;;;;2.97;2.77;;;18.60;99.90;;;;;;5147259;27;20476;-23
2021/07/08 05:09:24;;;;;;;3.10;2.70;;;18.50;99.90;;;;;;5147586;27;20508;-22
2021/07/08 05:12:03;;;;;;;2.87;2.63;;;18.40;99.90;;;;;;5146590;27;20508;-26
2021/07/08 05:14:34;;;;;;;5.67;3.00;;;18.30;99.90;;;;;;5147631;27;20436;-24
2021/07/08 05:17:09;;;;;;;3.50;2.97;;;18.30;99.90;;;;;;5146875;27;20973;-22
2021/07/08 05:19:40;;;;;;;4.70;3.20;;;18.20;99.90;;;;;;5147291;27;20504;-22
2021/07/08 05:22:11;;;;;;;3.10;2.80;;;18.10;99.90;;;;;;5146360;27;20468;-22
2021/07/08 05:24:42;;;;;;;4.30;3.10;;;18.00;99.90;;;;;;5146635;27;20504;-28
2021/07/08 05:27:20;;;;;;;3.03;2.73;;;17.90;99.90;;;;;;5147110;27;20731;-26
2021/07/08 05:29:51;;;;;;;3.30;3.00;;;17.90;99.90;;;;;;5147376;27;20506;-22
2021/07/08 05:32:22;;;;;;;3.53;3.23;;;17.90;99.90;;;;;;5146984;27;20448;-23
2021/07/08 05:34:57;;;;;;;4.57;2.90;;;17.70;99.90;;;;;;5146997;27;20456;-25
2021/07/08 05:37:30;;;;;;;5.67;3.17;;;17.70;99.90;;;;;;5146773;27;20722;-26
2021/07/08 05:40:04;;;;;;;3.17;2.87;;;17.70;99.90;;;;;;5146807;27;20456;-22
2021/07/08 05:42:40;;;;;;;4.43;3.10;;;17.60;99.90;;;;;;5145794;27;20637;-24
2021/07/08 05:45:14;;;;;;;4.47;3.17;;;17.60;99.90;;;;;;5146757;27;20500;-22
2021/07/08 05:47:48;;;;;;;4.90;3.60;;;17.50;99.90;;;;;;5145596;27;20489;-24
2021/07/08 05:50:19;;;;;;;3.50;3.20;;;17.40;99.90;;;;;;5147088;27;20425;-26
2021/07/08 05:52:50;;;;;;;5.67;2.97;;;17.30;99.90;;;;;;5146089;27;20451;-22
2021/07/08 05:55:26;;;;;;;3.80;3.30;;;17.20;99.90;;;;;;5135599;27;20445;-23
2021/07/08 05:57:59;;;;;;;3.63;3.20;;;17.20;99.90;;;;;;5126080;28;20434;-23
2021/07/08 06:00:30;;;;;;;3.27;2.97;;;17.20;99.90;;;;;;5125954;28;20449;-24
2021/07/08 06:03:04;;;;;;;4.00;3.43;;;17.20;99.90;;;;;;5125784;28;20450;-23
2021/07/08 06:05:35;;;;;;;2.87;2.67;;;17.10;99.90;;;;;;5125187;28;20537;-24
2021/07/08 06:08:06;;;;;;;3.20;2.90;;;17.10;99.90;;;;;;5126253;28;20849;-25
2021/07/08 06:10:37;;;;;;;7.70;3.40;;;17.00;99.90;;;;;;5124985;28;21221;-24
2021/07/08 06:13:13;;;;;;;3.53;3.23;;;17.00;99.90;;;;;;5125690;28;20795;-23
2021/07/08 06:15:53;;;;;;;5.63;3.37;;;16.90;99.90;;;;;;5125129;28;20996;-27
2021/07/08 06:18:30;;;;;;;3.27;3.00;;;16.90;99.90;;;;;;5125674;28;20437;-22
2021/07/08 06:21:01;;;;;;;3.30;3.03;;;16.80;99.90;;;;;;5124613;28;20449;-22
2021/07/08 06:23:32;;;;;;;4.37;3.23;;;16.70;99.90;;;;;;5125399;28;20449;-28
2021/07/08 06:26:06;;;;;;;3.63;3.20;;;16.70;99.90;;;;;;5124821;28;20438;-25
2021/07/08 06:28:42;;;;;;;4.90;3.63;;;16.60;99.90;;;;;;5131661;27;20501;-25
2021/07/08 06:31:14;;;;;;;3.90;3.20;;;16.60;99.90;;;;;;5145942;27;20429;-23
2021/07/08 06:33:45;;;;;;;3.90;3.43;;;16.50;99.90;;;;;;5145314;27;20440;-24
2021/07/08 06:36:21;;;;;;;3.50;3.17;;;16.50;99.90;;;;;;5145372;27;20488;-22
2021/07/08 06:38:52;;;;;;;3.47;3.10;;;16.50;99.90;;;;;;5145649;27;20487;-26
2021/07/08 06:41:23;;;;;;;6.37;3.97;;;16.40;99.90;;;;;;5144986;27;20882;-25
2021/07/08 06:43:56;;;;;;;3.77;3.30;;;16.40;99.90;;;;;;5144892;27;20481;-25
2021/07/08 06:46:29;;;;;;;3.53;3.00;;;16.40;99.90;;;;;;5145656;27;20440;-25
2021/07/08 06:49:08;;;;;;;6.80;3.33;;;16.30;99.90;;;;;;5145644;27;20520;-26
2021/07/08 06:51:41;;;;;;;3.93;3.57;;;16.20;99.90;;;;;;5145126;27;20513;-23
2021/07/08 06:54:13;;;;;;;4.30;3.13;;;16.10;99.90;;;;;;5145182;27;20509;-25
2021/07/08 06:56:46;;;;;;;4.10;3.53;;;16.10;99.90;;;;;;5144465;27;20487;-24
2021/07/08 06:59:19;;;;;;;3.70;3.40;;;16.10;99.90;;;;;;5145826;27;20501;-24
2021/07/08 07:01:50;;;;;;;3.33;3.00;;;16.10;99.90;;;;;;5145478;27;20441;-23
2021/07/08 07:04:21;;;;;;;3.80;3.23;;;16.00;99.90;;;;;;5145703;27;20436;-23
2021/07/08 07:06:53;;;;;;;4.00;3.10;;;16.00;99.90;;;;;;5144954;27;20563;-24
2021/07/08 07:09:23;;;;;;;3.83;3.53;;;16.10;99.90;;;;;;5145571;27;20509;-25
2021/07/08 07:11:55;;;;;;;3.20;2.97;;;16.00;99.90;;;;;;5144595;27;20502;-26
2021/07/08 07:14:29;;;;;;;3.83;3.30;;;15.90;99.90;;;;;;5144958;27;20483;-24
2021/07/08 07:17:03;;;;;;;3.60;3.30;;;15.90;99.90;;;;;;5145015;27;20511;-24
2021/07/08 07:19:34;;;;;;;3.40;3.10;;;15.90;99.90;;;;;;5125041;28;20931;-25
2021/07/08 07:22:05;;;;;;;3.80;3.20;;;15.90;99.90;;;;;;5124028;28;20612;-24
2021/07/08 07:24:36;;;;;;;5.00;3.23;;;15.90;99.90;;;;;;5124694;28;20472;-23
2021/07/08 07:27:10;;;;;;;3.97;3.43;;;15.80;99.90;;;;;;5123843;28;20446;-23
2021/07/08 07:29:43;;;;;;;3.63;3.33;;;15.80;99.90;;;;;;5124637;28;20442;-25
2021/07/08 07:32:15;;;;;;;4.80;3.77;;;15.80;99.90;;;;;;5124022;28;20480;-23
2021/07/08 07:34:51;;;;;;;6.23;2.60;;;15.70;99.90;;;;;;5124682;28;20465;-26
2021/07/08 07:37:25;;;;;;;2.80;2.60;;;15.70;99.90;;;;;;5123961;28;20505;-23
2021/07/08 07:39:56;;;;;;;3.90;3.20;;;15.70;99.90;;;;;;5123987;28;20446;-23
2021/07/08 07:42:27;;;;;;;3.83;2.90;;;15.70;99.90;;;;;;5123348;28;20469;-24
2021/07/08 07:45:37;;;;;;;3.10;2.90;;;15.60;99.90;;;;;;5124082;28;20534;-23
2021/07/08 07:48:11;;;;;;;3.00;2.80;;;15.60;99.90;;;;;;5124106;28;20478;-24
2021/07/08 07:50:42;;;;;;;4.77;3.00;;;15.60;99.90;;;;;;5123718;28;20460;-23
2021/07/08 07:53:13;;;;;;;4.40;2.90;;;15.50;99.90;;;;;;5123738;28;20457;-23
2021/07/08 07:55:48;;;;;;;4.40;3.43;;;15.60;99.90;;;;;;5137344;27;20485;-23
2021/07/08 07:58:19;;;;;;;2.63;2.43;;;15.60;99.90;;;;;;5144662;27;20513;-25
2021/07/08 08:00:50;;;;;;;3.60;3.03;;;15.50;99.90;;;;;;5144278;27;20452;-23
2021/07/08 08:03:23;;;;;;;3.60;3.30;;;15.50;99.90;;;;;;5144549;27;20875;-23
2021/07/08 08:08:27;;;;;;;2.73;2.47;;;15.40;99.90;;;;;;5143909;27;20916;-25
2021/07/08 08:08:48;;;;;;;3.40;3.10;;;15.50;99.90;;;;;;5143952;27;20533;-23
2021/07/08 08:11:22;;;;;;;5.37;3.43;;;15.40;99.90;;;;;;5143955;27;20421;-23
2021/07/08 08:13:53;;;;;;;2.83;2.63;;;15.40;99.90;;;;;;5144096;28;20453;-22
2021/07/08 08:16:24;;;;;;;4.83;2.80;;;15.40;99.90;;;;;;5144132;27;20470;-23
2021/07/08 08:18:59;;;;;;;4.50;3.30;;;15.40;99.90;;;;;;5144077;28;20444;-24
2021/07/08 08:21:31;;;;;;;3.90;3.23;;;15.40;99.90;;;;;;5143853;27;20448;-22
2021/07/08 08:24:12;;;;;;;3.37;2.73;;;15.30;99.90;;;;;;5144252;27;20520;-23
2021/07/08 08:26:50;;;;;;;3.93;3.50;;;15.30;99.90;;;;;;5143256;27;20456;-22
2021/07/08 08:29:27;;;;;;;2.80;2.60;;;15.30;99.90;;;;;;5144608;27;20441;-27
2021/07/08 08:31:58;;;;;;;3.27;2.97;;;15.20;99.90;;;;;;5143867;28;20444;-24
2021/07/08 08:34:30;;;;;;;5.33;3.20;;;15.20;99.90;;;;;;5144119;28;20441;-25
2021/07/08 08:37:01;;;;;;;3.27;3.00;;;15.20;99.90;;;;;;5143347;28;20615;-24
2021/07/08 08:39:34;;;;;;;3.17;2.97;;;15.10;99.90;;;;;;5144337;28;20502;-23
2021/07/08 08:42:15;;;;;;;5.50;3.40;;;15.10;99.90;;;;;;5142475;27;21738;-25
2021/07/08 08:44:51;;;;;;;4.33;3.60;;;15.10;99.90;;;;;;5144279;27;20503;-24
2021/07/08 08:47:25;;;;;;;3.30;3.10;;;15.10;99.90;;;;;;5143925;27;20440;-23
2021/07/08 08:49:58;;;;;;;3.20;2.57;;;15.10;99.90;;;;;;5144017;27;20441;-23
2021/07/08 08:52:29;;;;;;;3.20;2.90;;;15.00;99.90;;;;;;5143279;27;20503;-23
2021/07/08 08:55:02;;;;;;;3.33;2.60;;;15.00;99.90;;;;;;5143709;27;20491;-25
2021/07/08 08:57:37;;;;;;;4.00;3.67;;;15.00;99.90;;;;;;5143021;27;20516;-22
2021/07/08 09:00:44;;;;;;;3.60;3.30;;;15.00;99.90;;;;;;5143930;27;20452;-24
2021/07/08 09:03:17;;;;;;;2.90;2.70;;;15.00;99.90;;;;;;5143997;27;20449;-22
2021/07/08 09:06:00;;;;;;;3.90;2.97;;;14.90;99.90;;;;;;5143758;27;20907;-26
2021/07/08 09:08:33;;;;;;;5.10;2.90;;;14.90;99.90;;;;;;5144071;27;20914;-22
2021/07/08 09:11:13;;;;;;;4.20;2.80;;;14.80;99.90;;;;;;5143034;27;20441;-23
2021/07/08 09:14:02;;;;;;;3.20;2.90;;;14.80;99.90;;;;;;5143415;28;20454;-22
2021/07/08 09:16:36;;;;;;;2.83;2.60;;;14.70;99.90;;;;;;5143154;27;20445;-23
2021/07/08 09:19:17;;;;;;;4.93;3.00;;;14.70;99.90;;;;;;5143477;27;20577;-24
2021/07/08 09:21:55;;;;;;;5.60;2.97;;;14.70;99.90;;;;;;5144164;27;20449;-25
2021/07/08 09:24:27;;;;;;;3.60;3.30;;;14.70;99.90;;;;;;5146810;27;20437;-25
2021/07/08 09:27:02;;;;;;;4.40;3.00;;;14.70;99.90;;;;;;5146335;27;20448;-22
2021/07/08 09:29:37;;;;;;;3.30;2.80;;;14.70;99.90;;;;;;5147188;27;20556;-24
2021/07/08 09:32:15;;;;;;;3.37;3.07;;;14.60;99.90;;;;;;5146823;27;20472;-25
2021/07/08 09:34:49;;;;;;;3.47;3.17;;;14.60;99.90;;;;;;5147192;27;20464;-22
2021/07/08 09:37:23;;;;;;;2.77;2.53;;;14.60;99.90;;;;;;5146035;27;20920;-23
2021/07/08 09:39:55;;;;;;;4.80;2.83;;;14.60;99.90;;;;;;5147047;27;20436;-23
2021/07/08 09:42:37;;;;;;;3.37;2.80;;;14.50;99.90;;;;;;5145991;27;20429;-23
2021/07/08 09:45:10;;;;;;;2.57;2.37;;;14.50;99.90;;;;;;5147179;27;20477;-22
2021/07/08 09:47:42;;;;;;;3.43;2.67;;;14.50;99.90;;;;;;5146303;27;20513;-25
2021/07/08 09:50:15;;;;;;;4.00;3.27;;;14.50;99.90;;;;;;5146927;27;20445;-22
2021/07/08 09:53:04;;;;;;;2.80;2.50;;;14.40;99.90;;;;;;5145821;27;20532;-24
2021/07/08 09:56:03;;;;;;;4.80;2.97;;;14.50;99.90;;;;;;5145678;27;20452;-25
2021/07/08 09:58:52;;;;;;;3.20;2.80;;;14.40;99.90;;;;;;5146540;27;20978;-24
2021/07/08 10:01:27;;;;;;;4.23;3.20;;;14.40;99.90;;;;;;5146198;27;20456;-23
2021/07/08 10:03:59;;;;;;;2.87;2.67;;;14.40;99.90;;;;;;5146681;27;20431;-26
2021/07/08 10:06:32;;;;;;;4.93;3.03;;;14.40;99.90;;;;;;5145821;27;20441;-22
2021/07/08 10:09:14;;;;;;;2.70;2.50;;;14.30;99.90;;;;;;5146389;27;20459;-26
2021/07/08 10:11:50;;;;;;;3.90;3.33;;;14.30;99.90;;;;;;5145392;27;20453;-24
2021/07/08 10:14:23;;;;;;;4.17;3.00;;;14.30;99.90;;;;;;5146336;27;20445;-24
2021/07/08 10:16:55;;;;;;;7.43;3.40;;;14.30;99.90;;;;;;5146035;27;20444;-22
2021/07/08 10:19:27;;;;;;;3.80;3.07;;;14.20;99.90;;;;;;5146064;27;20591;-21
2021/07/08 10:22:01;;;;;;;3.73;3.30;;;14.30;99.90;;;;;;5145653;27;20481;-22
2021/07/08 10:24:34;;;;;;;3.03;2.83;;;14.20;99.90;;;;;;5146391;27;20468;-23
2021/07/08 10:27:07;;;;;;;4.07;3.07;;;14.20;99.90;;;;;;5145187;27;20449;-26
2021/07/08 10:29:47;;;;;;;3.80;2.77;;;14.10;99.90;;;;;;5145974;27;20448;-22
2021/07/08 10:32:26;;;;;;;4.43;2.90;;;14.10;99.90;;;;;;5145247;27;20473;-23
2021/07/08 10:34:57;;;;;;;2.90;2.63;;;14.00;99.90;;;;;;5146027;27;20483;-23
2021/07/08 10:37:33;;;;;;;3.03;2.83;;;14.00;99.90;;;;;;5145045;27;20483;-24
2021/07/08 10:40:32;;;;;;;5.17;2.80;;;14.10;99.90;;;;;;5145794;27;20435;-25
2021/07/08 10:43:14;;;;;;;3.33;3.03;;;14.00;99.90;;;;;;5145300;27;20433;-22
2021/07/08 10:45:47;;;;;;;3.73;2.70;;;14.00;99.90;;;;;;5145531;27;20519;-22
2021/07/08 10:48:21;;;;;;;5.67;2.97;;;14.00;99.90;;;;;;5145335;27;20463;-21
2021/07/08 10:50:53;;;;;;;3.47;3.17;;;14.00;99.90;;;;;;5145060;27;20455;-21
2021/07/08 10:53:27;;;;;;;4.33;2.83;;;14.00;99.90;;;;;;5145436;27;20474;-22
2021/07/08 10:56:01;;;;;;;2.73;2.53;;;14.00;99.90;;;;;;5127206;27;20452;-22
2021/07/08 11:01:51;;;;;;;3.33;2.70;;;13.90;99.90;;;;;;5123513;28;20445;-20
2021/07/08 11:04:46;;;;;;;5.10;3.30;;;13.90;99.90;;;;;;5125359;28;20487;-22
2021/07/08 11:07:22;;;;;;;3.50;2.70;;;13.90;99.90;;;;;;5124000;28;20442;-23
2021/07/08 11:10:06;;;;;;;4.33;3.00;;;13.90;99.90;;;;;;5127016;27;20869;-25
2021/07/08 11:12:48;;;;;;;6.60;3.50;;;13.80;99.90;;;;;;5144200;27;20470;-21
2021/07/08 11:15:48;;;;;;;4.90;3.17;;;13.80;99.90;;;;;;5145119;27;20451;-23
2021/07/08 11:18:31;;;;;;;6.33;3.53;;;13.80;99.90;;;;;;5144772;27;20579;-22
2021/07/08 11:21:04;;;;;;;3.50;3.20;;;13.80;99.90;;;;;;5144509;27;20581;-23
2021/07/08 11:23:44;;;;;;;5.27;3.33;;;13.70;99.90;;;;;;5144840;27;20443;-21
2021/07/08 11:26:52;;;;;;;4.70;3.50;;;13.80;99.90;;;;;;5144165;27;20432;-23
2021/07/08 11:29:36;;;;;;;4.30;3.40;;;13.80;99.90;;;;;;5143795;27;20784;-21
2021/07/08 11:32:26;;;;;;;6.87;3.77;;;13.90;99.90;;;;;;5144637;27;20939;-25
2021/07/08 11:35:11;;;;;;;4.00;3.30;;;14.00;99.90;;;;;;5144940;27;20425;-29
2021/07/08 11:37:53;;;;;;;5.77;3.60;;;14.00;99.90;;;;;;5144406;27;20452;-24
2021/07/08 11:40:27;;;;;;;4.37;3.40;;;14.10;99.90;;;;;;5144269;27;20512;-23
2021/07/08 11:43:16;;;;;;;3.70;3.40;;;14.20;99.90;;;;;;5144478;27;20482;-22
2021/07/08 11:45:51;;;;;;;6.00;3.20;;;14.30;99.90;;;;;;5143751;27;20546;-23
2021/07/08 11:48:30;;;;;;;4.13;3.67;;;14.40;99.90;;;;;;5144282;27;20758;-23
2021/07/08 11:51:05;;;;;;;5.27;3.20;;;14.40;99.90;;;;;;5144018;27;20460;-23
2021/07/08 11:53:37;;;;;;;4.40;3.43;;;14.50;99.90;;;;;;5144285;27;20492;-23
2021/07/08 11:56:11;;;;;;;4.83;4.20;;;14.60;99.90;;;;;;5143864;27;20462;-22
2021/07/08 11:58:45;;;;;;;4.00;3.30;;;14.70;99.90;;;;;;5144119;27;20518;-25
2021/07/08 12:01:19;;;;;;;3.10;2.80;;;14.70;99.90;;;;;;5144156;27;20559;-23
2021/07/08 12:03:55;;;;;;;3.60;3.30;;;14.70;99.90;;;;;;5144153;27;20445;-26
2021/07/08 12:06:30;;;;;;;5.90;4.50;;;14.90;99.90;;;;;;5143836;27;20552;-22
2021/07/08 12:09:05;;;;;;;3.77;3.30;;;14.90;99.90;;;;;;5144095;27;20441;-25
2021/07/08 12:11:42;;;;;;;3.93;3.30;;;14.90;99.90;;;;;;5143446;27;20835;-25
2021/07/08 12:14:15;;;;;;;3.90;3.57;;;15.00;99.90;;;;;;5144308;28;20456;-24
2021/07/08 12:16:52;;;;;;;4.83;3.40;;;15.00;99.90;;;;;;5143922;28;20445;-23
2021/07/08 12:19:30;;;;;;;3.43;3.13;;;15.00;99.90;;;;;;5143940;27;20488;-23
2021/07/08 12:22:05;;;;;;;5.27;4.10;;;15.00;99.90;;;;;;5143350;27;20543;-25
2021/07/08 12:24:40;;;;;;;4.60;3.60;;;15.00;99.90;;;;;;5144124;27;20556;-24
2021/07/08 12:27:11;;;;;;;3.70;3.40;;;15.10;99.90;;;;;;5143140;27;20459;-23
2021/07/08 12:29:44;;;;;;;3.50;3.20;;;15.10;99.90;;;;;;5144023;28;20445;-22
2021/07/08 12:32:21;;;;;;;4.17;3.03;;;15.10;99.90;;;;;;5144101;27;20440;-28
2021/07/08 12:34:58;;;;;;;6.10;3.40;;;15.20;99.90;;;;;;5144119;27;20436;-22
2021/07/08 12:37:31;;;;;;;4.00;3.60;;;15.20;99.90;;;;;;5143265;28;20444;-22
2021/07/08 12:40:07;;;;;;;3.83;3.47;;;15.30;99.90;;;;;;5143872;27;20601;-24
2021/07/08 12:42:42;;;;;;;3.80;3.50;;;15.20;99.90;;;;;;5143067;27;20449;-22
2021/07/08 12:45:35;;;;;;;3.60;3.30;;;15.30;99.90;;;;;;5143838;28;20587;-22
2021/07/08 12:48:15;;;;;;;4.60;3.53;;;15.30;99.90;;;;;;5143684;28;20467;-23
2021/07/08 12:50:48;;;;;;;5.50;3.50;;;15.30;99.90;;;;;;5143821;27;20429;-25
2021/07/08 12:53:22;;;;;;;7.43;3.70;;;15.30;99.90;;;;;;5143643;27;20449;-22
2021/07/08 12:55:57;;;;;;;3.53;3.23;;;15.40;99.90;;;;;;5144370;27;20447;-23
2021/07/08 12:58:36;;;;;;;6.67;3.40;;;15.40;99.90;;;;;;5147522;27;20460;-24
2021/07/08 13:01:09;;;;;;;5.10;3.50;;;15.40;99.90;;;;;;5147429;27;20971;-22
2021/07/08 13:03:42;;;;;;;3.90;3.50;;;15.40;99.90;;;;;;5147523;27;20440;-25
2021/07/08 13:06:18;;;;;;;4.47;3.83;;;15.50;99.90;;;;;;5147402;27;20478;-24
2021/07/08 13:09:06;;;;;;;5.40;3.90;;;15.40;99.90;;;;;;5147581;27;20493;-22
2021/07/08 13:11:38;;;;;;;7.50;3.30;;;15.30;99.90;;;;;;5146700;27;20440;-24
2021/07/08 13:14:25;;;;;;;3.70;3.00;;;15.30;99.90;;;;;;5147715;27;20812;-24
2021/07/08 13:17:09;;;;;;;3.67;3.23;;;15.40;99.90;;;;;;5146963;27;20505;-21
2021/07/08 13:19:44;;;;;;;6.27;3.73;;;15.40;99.90;;;;;;5147250;27;20490;-22
2021/07/08 13:22:20;;;;;;;5.13;3.47;;;15.40;99.90;;;;;;5146810;27;20444;-25
2021/07/08 13:24:59;;;;;;;4.30;3.37;;;15.50;99.90;;;;;;5147529;27;20472;-24
2021/07/08 13:27:37;;;;;;;4.60;3.13;;;15.50;99.90;;;;;;5146596;27;20437;-28
2021/07/08 13:30:28;;;;;;;5.37;3.30;;;15.50;99.90;;;;;;5147250;27;20829;-24
2021/07/08 13:33:05;;;;;;;4.40;3.20;;;15.70;99.90;;;;;;5147155;27;20536;-22